Time;durP1;ratioP1;P1;durP2;ratioP2;P2;SDS_P1;SDS_P2;PMS_P1;PMS_P2;Temp;Humidity;BMP_temperature;BMP_pressure;BME280_temperature;BME280_humidity;BME280_pressure;Samples;Min_cycle;Max_cycle;Signal;HPM_P1;HPM_P2
2021/06/16 00:02:01;;;;;;;3.13;1.08;;;;;;;25.96;37.61;101473.91;5055693;28;20029;-60
2021/06/16 00:04:26;;;;;;;5.05;1.40;;;;;;;25.91;38.26;101467.38;5037518;28;20045;-61
2021/06/16 00:06:52;;;;;;;2.40;1.15;;;;;;;25.85;37.75;101471.81;5055994;28;20075;-60
2021/06/16 00:09:17;;;;;;;4.97;0.80;;;;;;;25.81;37.68;101476.06;5055502;28;20021;-61
2021/06/16 00:11:43;;;;;;;2.47;1.00;;;;;;;25.76;37.77;101461.28;5037978;28;20025;-61
2021/06/16 00:14:09;;;;;;;3.67;1.15;;;;;;;25.74;38.31;101458.72;5055575;28;20378;-61
2021/06/16 00:16:34;;;;;;;2.80;0.88;;;;;;;25.72;37.92;101460.84;5021393;28;20382;-61
2021/06/16 00:18:59;;;;;;;1.45;0.95;;;;;;;25.71;37.91;101463.84;5055673;28;20163;-61
2021/06/16 00:21:25;;;;;;;3.08;0.98;;;;;;;25.69;37.91;101461.28;5055708;28;20040;-60
2021/06/16 00:23:50;;;;;;;3.45;1.17;;;;;;;25.67;38.19;101457.06;5037641;28;20203;-60
2021/06/16 00:26:16;;;;;;;0.75;0.50;;;;;;;25.66;38.08;101456.22;5055311;28;20037;-60
2021/06/16 00:28:42;;;;;;;2.72;1.02;;;;;;;25.66;38.16;101450.72;5055240;28;20401;-61
2021/06/16 00:31:07;;;;;;;2.78;0.90;;;;;;;25.67;38.12;101441.44;5037150;28;20029;-60
2021/06/16 00:33:33;;;;;;;3.15;1.17;;;;;;;25.68;37.98;101442.28;5037577;28;20037;-60
2021/06/16 00:35:59;;;;;;;6.50;0.82;;;;;;;25.74;38.28;101441.44;5055354;28;20033;-61
2021/06/16 00:38:24;;;;;;;2.22;1.20;;;;;;;25.78;37.63;101439.94;5036841;28;20359;-60
2021/06/16 00:40:50;;;;;;;5.25;1.50;;;;;;;25.82;38.16;101439.31;5054968;28;20385;-61
2021/06/16 00:43:16;;;;;;;3.00;1.02;;;;;;;25.81;38.11;101436.78;5054978;28;20074;-61
2021/06/16 00:45:42;;;;;;;9.15;1.55;;;;;;;25.75;37.91;101435.72;5055141;28;20040;-61
2021/06/16 00:48:07;;;;;;;6.45;1.08;;;;;;;25.71;38.01;101437.19;5054536;28;20060;-60
2021/06/16 00:50:35;;;;;;;4.63;1.33;;;;;;;25.66;38.17;101439.75;5054916;28;20033;-60
2021/06/16 00:53:01;;;;;;;7.38;0.98;;;;;;;25.60;37.78;101435.09;5055104;28;20024;-61
2021/06/16 00:55:26;;;;;;;8.30;1.30;;;;;;;25.57;38.22;101441.03;5036734;28;20393;-60
2021/06/16 00:57:52;;;;;;;4.07;1.10;;;;;;;25.52;38.40;101434.50;5036497;28;20028;-60
2021/06/16 01:00:20;;;;;;;2.05;1.23;;;;;;;25.45;38.06;101437.22;5054643;28;20037;-60
2021/06/16 01:03:26;;;;;;;4.50;0.90;;;;;;;25.37;38.71;101429.19;5052805;28;20420;-60
2021/06/16 01:06:41;;;;;;;7.03;1.02;;;;;;;25.31;38.59;101419.91;4954767;29;20429;-60
2021/06/16 01:09:16;;;;;;;5.75;1.20;;;;;;;25.27;39.29;101420.53;4935709;29;20028;-61
2021/06/16 01:11:59;;;;;;;2.35;0.90;;;;;;;25.21;39.04;101418.66;4935502;29;20512;-60
2021/06/16 01:14:33;;;;;;;;;;;;;;;25.18;38.22;101413.59;4935755;29;20051;-60
2021/06/16 01:17:00;;;;;;;3.13;1.05;;;;;;;25.15;38.97;101414.00;4935452;29;20385;-61
2021/06/16 01:19:50;;;;;;;1.52;0.73;;;;;;;25.12;38.96;101418.00;4935281;29;20039;-60
2021/06/16 01:22:42;;;;;;;3.83;1.38;;;;;;;25.07;39.36;101414.22;4934818;29;20155;-61
2021/06/16 01:25:11;;;;;;;8.00;1.00;;;;;;;25.04;38.66;101414.63;4934746;29;20027;-60
2021/06/16 01:27:37;;;;;;;4.20;1.13;;;;;;;25.03;38.81;101412.94;4935067;29;20429;-60
2021/06/16 01:30:05;;;;;;;1.75;0.90;;;;;;;25.03;39.49;101415.66;4934803;29;20065;-60
2021/06/16 01:32:30;;;;;;;3.05;0.90;;;;;;;25.00;38.73;101405.97;4935295;29;20094;-60
2021/06/16 01:34:56;;;;;;;5.10;1.70;;;;;;;24.96;39.25;101410.16;4934951;29;20032;-60
2021/06/16 01:37:22;;;;;;;3.45;1.00;;;;;;;24.95;39.10;101407.66;4953431;28;20042;-61
2021/06/16 01:39:50;;;;;;;3.45;1.10;;;;;;;24.90;38.58;101400.06;4989714;28;20048;-61
2021/06/16 01:42:18;;;;;;;2.30;1.00;;;;;;;24.85;39.08;101408.88;5016183;28;20026;-60
2021/06/16 01:44:44;;;;;;;3.38;1.10;;;;;;;24.80;39.91;101399.59;5016539;28;20064;-61
2021/06/16 01:47:10;;;;;;;1.90;1.35;;;;;;;24.74;39.25;101393.03;5016543;28;20045;-60
2021/06/16 01:49:36;;;;;;;4.38;1.27;;;;;;;24.71;39.06;101393.44;5033952;28;20100;-60
2021/06/16 01:52:01;;;;;;;2.78;0.90;;;;;;;24.68;40.14;101393.03;5016321;28;20480;-59
2021/06/16 01:54:28;;;;;;;2.00;1.15;;;;;;;24.63;40.03;101393.63;5016518;28;20037;-60
2021/06/16 01:56:54;;;;;;;2.38;1.35;;;;;;;24.64;39.70;101387.13;5016056;28;20022;-59
2021/06/16 01:59:20;;;;;;;3.67;1.35;;;;;;;24.61;39.35;101390.28;5033921;28;20056;-60
2021/06/16 02:01:49;;;;;;;3.65;1.35;;;;;;;24.60;39.47;101399.53;5015920;28;20164;-60
2021/06/16 02:04:15;;;;;;;2.08;1.15;;;;;;;24.55;39.87;101369.16;5009622;28;20049;-60
2021/06/16 02:06:42;;;;;;;4.15;2.22;;;;;;;24.61;39.64;101389.41;5036059;28;20088;-60
2021/06/16 02:09:09;;;;;;;3.85;1.45;;;;;;;24.60;39.80;101390.47;5035412;28;20021;-61
2021/06/16 02:11:39;;;;;;;3.03;1.00;;;;;;;24.58;39.52;101393.41;5053578;28;20021;-60
2021/06/16 02:14:07;;;;;;;4.75;1.30;;;;;;;24.56;40.60;101387.31;5035736;28;20048;-61
2021/06/16 02:16:39;;;;;;;8.02;1.45;;;;;;;24.55;40.56;101385.63;5053450;28;20377;-60
2021/06/16 02:19:11;;;;;;;2.33;1.10;;;;;;;24.51;40.04;101378.84;5053209;28;20179;-59
2021/06/16 02:21:38;;;;;;;3.60;1.10;;;;;;;24.53;40.68;101382.25;5053444;28;20473;-61
2021/06/16 02:24:04;;;;;;;2.33;1.10;;;;;;;24.54;39.69;101378.44;5035432;28;20426;-61
2021/06/16 02:26:29;;;;;;;4.40;1.33;;;;;;;24.52;40.24;101375.06;5035246;28;20078;-61
2021/06/16 02:28:55;;;;;;;5.88;1.10;;;;;;;24.51;40.73;101378.84;5035424;28;20043;-60
2021/06/16 02:31:20;;;;;;;2.83;1.40;;;;;;;24.51;40.23;101376.09;5053962;28;20441;-59
2021/06/16 02:33:48;;;;;;;3.25;1.20;;;;;;;24.50;40.48;101374.44;5054031;28;20036;-60
2021/06/16 02:36:13;;;;;;;3.70;1.30;;;;;;;24.50;40.87;101371.69;5053331;28;20469;-60
2021/06/16 02:38:41;;;;;;;5.47;1.50;;;;;;;24.49;40.01;101367.25;5035462;28;20036;-59
2021/06/16 02:41:13;;;;;;;4.88;1.50;;;;;;;24.50;40.69;101363.47;5035295;28;20025;-60
2021/06/16 02:43:39;;;;;;;1.67;1.10;;;;;;;24.49;39.84;101355.44;5053001;28;20021;-60
2021/06/16 02:46:06;;;;;;;4.00;1.80;;;;;;;24.47;40.87;101355.66;5035529;28;20168;-60
2021/06/16 02:48:32;;;;;;;4.00;1.42;;;;;;;24.41;40.81;101345.53;5035115;28;20033;-61
2021/06/16 02:50:58;;;;;;;9.25;1.55;;;;;;;24.41;40.18;101345.53;5035711;28;20104;-60
2021/06/16 02:53:25;;;;;;;2.85;1.30;;;;;;;24.44;40.86;101347.88;5035400;28;20032;-60
2021/06/16 02:55:55;;;;;;;2.58;1.25;;;;;;;24.43;40.71;101343.41;5035027;28;20021;-60
2021/06/16 02:58:21;;;;;;;3.75;1.38;;;;;;;24.47;39.98;101346.59;5035156;28;20104;-60
2021/06/16 03:00:53;;;;;;;2.25;1.20;;;;;;;24.46;41.01;101343.00;5035628;28;20543;-60
2021/06/16 03:03:21;;;;;;;5.25;1.27;;;;;;;24.43;40.81;101342.59;5053084;28;20088;-60
2021/06/16 03:05:48;;;;;;;3.60;1.42;;;;;;;24.42;40.99;101341.75;5035381;28;20358;-60
2021/06/16 03:08:15;;;;;;;3.75;1.63;;;;;;;24.39;40.42;101342.16;5034783;28;20092;-61
2021/06/16 03:10:40;;;;;;;4.85;1.58;;;;;;;24.37;40.34;101341.53;5052473;28;20477;-60
2021/06/16 03:13:06;;;;;;;4.35;1.60;;;;;;;24.35;40.17;101335.41;5038504;28;20037;-60
2021/06/16 03:15:31;;;;;;;3.22;1.30;;;;;;;24.33;41.03;101332.03;5056519;28;20033;-60
2021/06/16 03:17:57;;;;;;;8.48;1.88;;;;;;;24.26;40.73;101326.53;5056483;28;20021;-60
2021/06/16 03:20:25;;;;;;;3.55;1.50;;;;;;;24.27;40.41;101332.84;5038779;28;20532;-59
2021/06/16 03:22:51;;;;;;;3.28;1.27;;;;;;;24.22;41.18;101336.22;5038818;28;20421;-60
2021/06/16 03:25:18;;;;;;;3.50;1.40;;;;;;;24.24;40.48;101341.47;5038520;28;20377;-60
2021/06/16 03:27:44;;;;;;;4.72;1.90;;;;;;;24.22;41.47;101340.84;5038511;28;20017;-60
2021/06/16 03:30:10;;;;;;;5.32;1.33;;;;;;;24.19;40.51;101335.78;5038247;28;20125;-60
2021/06/16 03:32:36;;;;;;;6.25;1.30;;;;;;;24.17;41.03;101336.00;5038526;28;20131;-60
2021/06/16 03:35:03;;;;;;;3.55;1.65;;;;;;;24.17;41.08;101336.00;5038539;28;20033;-60
2021/06/16 03:37:29;;;;;;;4.78;1.42;;;;;;;24.16;40.37;101336.19;5038577;28;20393;-60
2021/06/16 03:39:55;;;;;;;6.95;1.60;;;;;;;24.14;40.59;101335.56;5038575;28;20029;-59
2021/06/16 03:42:21;;;;;;;4.85;1.63;;;;;;;24.14;41.47;101332.81;5056235;28;20087;-60
2021/06/16 03:44:47;;;;;;;3.67;1.58;;;;;;;24.13;40.99;101328.38;5038135;28;20441;-60
2021/06/16 03:47:14;;;;;;;3.47;1.50;;;;;;;24.13;40.99;101325.66;5055788;28;20036;-60
2021/06/16 03:49:42;;;;;;;7.28;1.55;;;;;;;24.18;40.87;101328.59;5037886;28;20037;-60
2021/06/16 03:52:08;;;;;;;5.97;1.70;;;;;;;24.18;41.67;101321.25;5038217;28;20052;-60
2021/06/16 03:54:34;;;;;;;5.15;1.95;;;;;;;24.21;40.67;101315.34;5037934;28;20048;-60
2021/06/16 03:56:59;;;;;;;5.97;1.77;;;;;;;24.24;41.43;101316.84;5037815;28;20035;-60
2021/06/16 03:59:25;;;;;;;4.72;2.25;;;;;;;24.27;41.77;101316.41;5037667;28;20509;-59
2021/06/16 04:01:50;;;;;;;9.80;2.13;;;;;;;24.32;40.94;101322.13;5055831;28;20025;-60
2021/06/16 04:04:16;;;;;;;5.97;1.42;;;;;;;24.36;41.63;101315.19;5037901;28;20517;-61
2021/06/16 04:06:44;;;;;;;6.55;1.67;;;;;;;24.41;41.54;101315.41;5038205;28;20033;-60
2021/06/16 04:09:13;;;;;;;2.75;2.03;;;;;;;24.45;41.43;101310.38;5055390;28;20109;-61
2021/06/16 04:11:40;;;;;;;5.15;1.95;;;;;;;24.50;40.73;101308.69;5056171;28;20037;-61
2021/06/16 04:14:05;;;;;;;4.60;2.30;;;;;;;24.55;41.13;101302.56;5037764;28;20017;-60
2021/06/16 04:16:31;;;;;;;6.90;2.17;;;;;;;24.60;41.52;101303.63;5055728;28;20040;-61
2021/06/16 04:18:56;;;;;;;2.78;1.75;;;;;;;24.64;41.06;101307.66;5037404;28;20448;-61
2021/06/16 04:21:22;;;;;;;4.80;2.00;;;;;;;24.68;41.22;101303.41;5037282;28;20032;-60
2021/06/16 04:23:49;;;;;;;7.47;2.05;;;;;;;24.73;40.57;101302.81;5054074;28;20028;-60
2021/06/16 04:26:15;;;;;;;6.30;2.65;;;;;;;24.77;41.17;101302.16;5037213;28;20021;-60
2021/06/16 04:28:40;;;;;;;6.65;2.13;;;;;;;24.79;41.04;101294.59;5055350;28;20359;-60
2021/06/16 04:31:05;;;;;;;3.95;2.15;;;;;;;24.87;40.60;101297.13;5055245;28;20055;-60
2021/06/16 04:33:32;;;;;;;5.25;2.20;;;;;;;24.94;40.55;101285.31;5054995;28;20032;-61
2021/06/16 04:35:57;;;;;;;6.60;2.30;;;;;;;24.98;40.85;101286.59;5037267;28;20070;-60
2021/06/16 04:38:23;;;;;;;6.40;2.60;;;;;;;25.05;40.97;101293.75;5054684;28;20452;-60
2021/06/16 04:40:48;;;;;;;6.93;2.55;;;;;;;25.09;40.61;101281.31;5054785;28;20029;-60
2021/06/16 04:43:13;;;;;;;4.47;2.50;;;;;;;25.21;40.47;101287.00;5054985;28;20051;-60
2021/06/16 04:45:39;;;;;;;4.88;2.33;;;;;;;25.29;40.98;101287.59;5054958;28;20103;-60
2021/06/16 04:48:05;;;;;;;3.97;2.88;;;;;;;25.34;40.68;101273.25;5054874;28;20025;-60
2021/06/16 04:50:31;;;;;;;5.28;2.13;;;;;;;25.38;40.61;101275.34;5036804;28;20065;-60
2021/06/16 04:52:56;;;;;;;4.88;3.35;;;;;;;25.49;40.94;101273.84;5053375;28;20033;-60
2021/06/16 04:55:21;;;;;;;5.75;2.42;;;;;;;25.59;39.95;101276.16;5055159;28;20071;-60
2021/06/16 04:57:47;;;;;;;6.47;2.28;;;;;;;25.67;40.76;101268.53;5037161;28;20086;-60
2021/06/16 05:00:12;;;;;;;9.18;2.30;;;;;;;25.71;40.39;101261.53;5054556;28;20094;-60
2021/06/16 05:02:38;;;;;;;3.40;2.28;;;;;;;25.82;40.36;101263.63;5054559;28;20025;-61
2021/06/16 05:05:05;;;;;;;6.57;2.35;;;;;;;25.86;40.23;101264.84;5054073;28;20132;-59
2021/06/16 05:07:30;;;;;;;5.43;2.58;;;;;;;25.92;40.53;101264.00;5036436;28;20112;-60
2021/06/16 05:09:56;;;;;;;11.95;3.15;;;;;;;26.03;40.25;101265.19;5054519;28;20107;-60
2021/06/16 05:12:21;;;;;;;10.98;2.67;;;;;;;26.17;39.73;101255.00;5054474;28;20033;-59
2021/06/16 05:14:47;;;;;;;9.63;3.78;;;;;;;26.27;40.21;101269.13;5054323;28;20109;-60
2021/06/16 05:17:12;;;;;;;5.10;2.55;;;;;;;26.39;39.96;101259.06;5054703;28;20104;-60
2021/06/16 05:19:38;;;;;;;5.53;2.35;;;;;;;26.46;39.54;101265.38;5054271;28;20064;-59
2021/06/16 05:22:10;;;;;;;9.13;3.10;;;;;;;26.58;39.62;101263.56;5036371;28;20041;-60
2021/06/16 05:24:36;;;;;;;8.77;2.63;;;;;;;26.64;40.19;101254.44;5054249;28;20424;-60
2021/06/16 05:27:02;;;;;;;9.13;2.85;;;;;;;26.79;39.72;101255.00;5054102;28;20465;-60
2021/06/16 05:29:27;;;;;;;8.15;2.83;;;;;;;26.86;39.71;101247.50;5053843;28;20039;-60
2021/06/16 05:31:53;;;;;;;6.75;2.60;;;;;;;26.96;39.10;101253.34;5019504;28;20041;-61
2021/06/16 05:34:18;;;;;;;13.23;2.53;;;;;;;27.10;39.29;101254.06;5053549;28;20330;-60
2021/06/16 05:36:44;;;;;;;6.80;2.88;;;;;;;27.17;39.30;101252.06;5053576;28;20067;-60
2021/06/16 05:39:10;;;;;;;6.63;2.75;;;;;;;27.20;39.06;101243.38;5053859;28;20036;-60
2021/06/16 05:41:36;;;;;;;6.32;2.53;;;;;;;27.33;39.73;101243.22;5053901;28;20465;-60
2021/06/16 05:44:01;;;;;;;5.05;2.47;;;;;;;27.48;39.03;101240.97;5053916;28;20028;-61
2021/06/16 05:46:26;;;;;;;6.65;2.50;;;;;;;27.63;39.06;101237.81;5053662;28;20094;-60
2021/06/16 05:48:52;;;;;;;10.07;2.30;;;;;;;27.83;38.53;101238.41;5053962;28;20033;-60
2021/06/16 05:51:17;;;;;;;8.25;2.20;;;;;;;27.99;38.52;101237.75;5053861;28;20483;-60
2021/06/16 05:53:42;;;;;;;12.52;2.55;;;;;;;28.12;38.50;101229.31;5054047;28;20028;-60
2021/06/16 05:56:08;;;;;;;10.55;2.85;;;;;;;28.36;38.65;101232.16;5053731;28;20466;-59
2021/06/16 05:58:33;;;;;;;3.90;2.72;;;;;;;28.56;37.74;101232.69;5052866;28;20139;-60
2021/06/16 06:00:58;;;;;;;10.27;2.92;;;;;;;28.76;37.73;101225.75;5053909;28;20037;-59
2021/06/16 06:03:24;;;;;;;6.72;2.28;;;;;;;28.95;38.21;101228.44;5053117;28;20053;-60
2021/06/16 06:05:49;;;;;;;6.57;2.75;;;;;;;29.15;37.08;101229.72;5054058;28;20175;-60
2021/06/16 06:08:14;;;;;;;13.98;3.17;;;;;;;29.33;38.07;101228.78;5053225;28;20025;-60
2021/06/16 06:10:40;;;;;;;21.90;3.67;;;;;;;29.50;37.79;101228.84;5053335;28;20021;-60
2021/06/16 06:13:05;;;;;;;10.20;3.30;;;;;;;29.67;37.76;101232.53;5053596;28;20115;-60
2021/06/16 06:15:31;;;;;;;11.50;2.80;;;;;;;29.82;37.44;101225.41;5053537;28;20025;-61
2021/06/16 06:17:57;;;;;;;7.97;2.58;;;;;;;29.94;36.33;101217.94;5053229;28;20053;-60
2021/06/16 06:20:22;;;;;;;7.68;2.67;;;;;;;30.12;37.25;101225.19;5053360;28;20404;-60
2021/06/16 06:22:50;;;;;;;8.32;3.03;;;;;;;30.21;36.78;101215.38;5053375;28;20107;-58
2021/06/16 06:25:15;;;;;;;12.60;2.97;;;;;;;30.41;37.15;101224.06;5036075;28;20029;-57
2021/06/16 06:27:41;;;;;;;6.32;2.92;;;;;;;30.54;36.17;101220.16;5053425;28;20036;-58
2021/06/16 06:30:07;;;;;;;6.75;2.70;;;;;;;30.69;36.41;101211.25;5052069;28;20036;-57
2021/06/16 06:32:33;;;;;;;9.88;2.92;;;;;;;30.84;35.90;101217.03;5051958;28;20076;-57
2021/06/16 06:34:58;;;;;;;7.97;4.03;;;;;;;31.00;36.36;101205.13;5035282;28;20071;-57
2021/06/16 06:37:25;;;;;;;7.90;3.70;;;;;;;31.09;35.71;101211.91;5053137;28;20354;-58
2021/06/16 06:39:50;;;;;;;9.93;3.22;;;;;;;31.17;35.66;101200.38;5053224;28;20043;-58
2021/06/16 06:42:16;;;;;;;7.03;3.65;;;;;;;31.23;35.56;101196.59;5035635;28;20436;-57
2021/06/16 06:44:42;;;;;;;10.50;3.55;;;;;;;31.33;35.77;101198.66;5053354;28;20041;-58
2021/06/16 06:47:08;;;;;;;11.75;3.75;;;;;;;31.42;35.49;101197.94;5056872;28;20072;-57
2021/06/16 06:49:33;;;;;;;7.30;3.28;;;;;;;31.54;35.53;101206.16;5057490;28;20041;-58
2021/06/16 06:51:58;;;;;;;6.38;3.30;;;;;;;31.64;35.43;101190.50;5057293;28;20029;-57
2021/06/16 06:54:24;;;;;;;6.18;3.25;;;;;;;31.81;35.25;101190.41;5057254;28;20029;-58
2021/06/16 06:56:49;;;;;;;6.30;3.67;;;;;;;31.91;34.78;101179.41;5055660;28;20061;-58
2021/06/16 06:59:14;;;;;;;8.88;3.47;;;;;;;32.04;35.30;101179.06;5056871;28;20111;-58
2021/06/16 07:01:40;;;;;;;6.72;3.47;;;;;;;32.17;34.94;101177.78;5038932;28;20029;-57
2021/06/16 07:04:05;;;;;;;14.82;4.05;;;;;;;32.33;35.02;101174.03;5056871;28;20470;-57
2021/06/16 07:06:31;;;;;;;8.82;3.63;;;;;;;32.42;34.72;101178.00;5057005;28;20037;-57
2021/06/16 07:08:57;;;;;;;12.32;3.63;;;;;;;32.50;35.08;101171.09;5057238;28;20025;-57
2021/06/16 07:11:23;;;;;;;8.45;3.42;;;;;;;32.59;34.64;101170.38;5055293;28;20029;-58
2021/06/16 07:13:48;;;;;;;7.95;3.70;;;;;;;32.65;34.54;101172.09;5055340;28;20033;-57
2021/06/16 07:16:13;;;;;;;15.23;4.15;;;;;;;32.73;34.92;101166.06;5056887;28;20032;-58
2021/06/16 07:18:39;;;;;;;10.25;4.05;;;;;;;32.83;34.73;101168.06;5056712;28;20115;-58
2021/06/16 07:21:04;;;;;;;7.10;4.22;;;;;;;32.92;34.14;101169.22;5056813;28;20025;-57
2021/06/16 07:23:30;;;;;;;10.75;4.03;;;;;;;33.04;34.45;101166.22;5038489;28;20543;-58
2021/06/16 07:25:56;;;;;;;5.75;3.25;;;;;;;33.15;34.95;101162.44;5056960;28;20453;-58
2021/06/16 07:28:21;;;;;;;10.68;4.38;;;;;;;33.30;34.97;101162.50;5056928;28;20028;-58
2021/06/16 07:30:46;;;;;;;10.55;4.25;;;;;;;33.41;34.72;101158.66;5057136;28;20040;-59
2021/06/16 07:33:12;;;;;;;6.65;3.17;;;;;;;33.54;33.59;101152.59;5056762;28;20072;-59
2021/06/16 07:35:37;;;;;;;6.47;3.47;;;;;;;33.69;34.28;101151.84;5056493;28;20025;-58
2021/06/16 07:38:03;;;;;;;10.43;4.18;;;;;;;33.79;34.07;101151.84;5056519;28;20024;-58
2021/06/16 07:40:29;;;;;;;5.82;3.65;;;;;;;33.86;33.47;101153.28;5056147;28;20458;-58
2021/06/16 07:42:54;;;;;;;8.32;3.80;;;;;;;34.01;34.55;101154.38;5056606;28;20036;-58
2021/06/16 07:45:19;;;;;;;7.20;4.03;;;;;;;34.16;33.15;101148.88;5055113;28;20485;-58
2021/06/16 07:47:45;;;;;;;6.30;3.47;;;;;;;34.32;34.38;101148.59;5056385;28;20123;-59
2021/06/16 07:50:11;;;;;;;6.80;4.10;;;;;;;34.44;34.03;101146.38;5045646;28;20065;-58
2021/06/16 07:52:37;;;;;;;9.25;4.47;;;;;;;34.60;33.67;101147.22;5035324;28;20029;-58
2021/06/16 07:55:04;;;;;;;9.88;3.88;;;;;;;34.66;32.65;101139.69;5018059;28;20036;-58
2021/06/16 07:57:29;;;;;;;5.85;3.65;;;;;;;34.80;33.58;101141.59;5034912;28;20471;-59
2021/06/16 07:59:54;;;;;;;8.50;4.78;;;;;;;34.91;33.04;101146.03;5035220;28;20032;-58
2021/06/16 08:02:20;;;;;;;9.30;3.83;;;;;;;35.04;33.32;101137.06;5034743;28;20060;-58
2021/06/16 08:04:45;;;;;;;7.28;4.35;;;;;;;35.14;32.05;101136.25;5049394;28;20083;-58
2021/06/16 08:07:11;;;;;;;13.55;4.07;;;;;;;35.32;32.88;101135.59;5054983;28;20033;-58
2021/06/16 08:09:42;;;;;;;5.88;4.18;;;;;;;35.48;32.84;101130.78;5037459;28;20025;-58
2021/06/16 08:12:09;;;;;;;7.57;3.50;;;;;;;35.55;32.53;101120.19;5056361;28;20029;-59
2021/06/16 08:14:35;;;;;;;9.57;4.13;;;;;;;35.71;31.97;101132.91;5037719;28;20033;-58
2021/06/16 08:17:01;;;;;;;4.88;4.30;;;;;;;35.77;32.04;101123.38;5055033;28;20454;-58
2021/06/16 08:19:26;;;;;;;4.40;3.42;;;;;;;35.94;31.99;101122.97;5055203;28;20031;-59
2021/06/16 08:21:52;;;;;;;7.70;3.92;;;;;;;36.06;31.80;101127.13;5055201;28;20032;-58
2021/06/16 08:24:17;;;;;;;9.32;5.18;;;;;;;36.18;32.39;101126.75;5037150;28;20032;-58
2021/06/16 08:26:42;;;;;;;7.60;4.85;;;;;;;36.29;31.71;101130.28;5054707;28;20033;-59
2021/06/16 08:29:08;;;;;;;10.48;4.60;;;;;;;36.43;31.86;101122.88;5053589;28;20465;-59
2021/06/16 08:31:33;;;;;;;9.02;4.65;;;;;;;36.45;31.74;101129.84;5054906;28;20045;-59
2021/06/16 08:33:58;;;;;;;5.95;3.45;;;;;;;36.53;31.25;101132.03;5054638;28;20025;-59
2021/06/16 08:36:24;;;;;;;7.45;4.25;;;;;;;36.65;31.50;101128.84;5054570;28;20048;-58
2021/06/16 08:38:49;;;;;;;6.80;3.75;;;;;;;36.77;32.21;101126.44;5054497;28;20126;-59
2021/06/16 08:41:15;;;;;;;7.43;3.80;;;;;;;36.90;31.34;101119.34;5054685;28;20044;-58
2021/06/16 08:43:42;;;;;;;8.02;3.75;;;;;;;37.08;31.47;101122.22;5037732;28;20041;-58
2021/06/16 08:46:10;;;;;;;8.27;3.90;;;;;;;37.17;31.56;101120.41;5054688;28;20035;-59
2021/06/16 08:48:37;;;;;;;7.60;4.28;;;;;;;37.33;31.06;101116.28;5037077;28;20366;-59
2021/06/16 08:51:04;;;;;;;10.23;4.68;;;;;;;37.50;30.71;101112.16;5055153;28;20063;-58
2021/06/16 08:53:30;;;;;;;6.82;3.63;;;;;;;37.63;30.83;101100.25;5053727;28;20366;-58
2021/06/16 08:55:55;;;;;;;8.05;4.20;;;;;;;37.67;30.39;101104.94;5053979;28;20033;-58
2021/06/16 08:58:21;;;;;;;6.38;3.92;;;;;;;37.79;30.92;101112.88;5053929;28;20025;-59
2021/06/16 09:00:46;;;;;;;4.57;3.78;;;;;;;37.95;30.76;101102.28;5054352;28;20445;-58
2021/06/16 09:03:11;;;;;;;7.47;3.97;;;;;;;38.12;29.94;101100.59;5052643;28;20048;-58
2021/06/16 09:05:38;;;;;;;10.30;3.92;;;;;;;38.26;29.86;101104.25;5053077;28;20132;-59
2021/06/16 09:08:24;;;;;;;12.20;4.35;;;;;;;38.42;29.59;101097.28;5035519;28;20025;-59
2021/06/16 09:10:52;;;;;;;11.98;3.92;;;;;;;38.52;30.37;101096.28;5053943;28;20036;-59
2021/06/16 09:13:32;;;;;;;4.72;3.35;;;;;;;38.59;29.82;101093.03;5035899;28;20121;-58
2021/06/16 09:16:00;;;;;;;6.15;4.13;;;;;;;38.64;29.82;101093.78;5053914;28;20039;-59
2021/06/16 09:18:25;;;;;;;6.00;4.05;;;;;;;38.75;29.95;101094.44;5053750;28;20472;-59
2021/06/16 09:20:56;;;;;;;5.07;3.70;;;;;;;38.79;29.66;101096.31;5053798;28;20044;-59
2021/06/16 09:23:26;;;;;;;11.27;3.97;;;;;;;39.07;29.77;101085.94;5053916;28;20477;-59
2021/06/16 09:26:11;;;;;;;7.43;4.35;;;;;;;39.39;28.77;101088.63;5053794;28;20021;-60
2021/06/16 09:28:50;;;;;;;10.50;4.00;;;;;;;39.55;29.12;101092.72;5036061;28;20083;-59
2021/06/16 09:31:16;;;;;;;11.15;4.68;;;;;;;39.67;28.87;101089.41;5053557;28;20033;-60
2021/06/16 09:33:42;;;;;;;10.57;4.85;;;;;;;39.84;28.86;101088.72;5053832;28;20025;-60
2021/06/16 09:36:18;;;;;;;10.30;4.72;;;;;;;40.06;29.14;101085.91;5036017;28;20139;-59
2021/06/16 09:38:46;;;;;;;9.52;4.80;;;;;;;40.23;28.43;101086.06;5053320;28;20075;-59
2021/06/16 09:41:18;;;;;;;9.90;4.07;;;;;;;40.44;28.88;101081.53;5052176;28;20037;-59
2021/06/16 09:43:43;;;;;;;;;;;;;;;40.68;28.87;101087.63;5036048;28;20025;-59
2021/06/16 09:46:10;;;;;;;7.35;4.78;;;;;;;40.75;27.68;101080.69;5053729;28;19915;-58
2021/06/16 09:48:38;;;;;;;13.10;5.53;;;;;;;40.86;27.99;101082.91;5053450;28;20053;-59
2021/06/16 09:51:17;;;;;;;6.97;4.68;;;;;;;41.03;27.60;101073.72;5053693;28;20029;-58
2021/06/16 09:54:18;;;;;;;8.55;4.03;;;;;;;41.19;27.42;101075.75;5052713;28;20104;-59
2021/06/16 09:57:00;;;;;;;7.25;4.05;;;;;;;41.38;27.54;101066.22;5053123;28;20029;-59
2021/06/16 09:59:39;;;;;;;8.55;5.22;;;;;;;41.55;27.21;101055.78;5035915;28;20029;-59
2021/06/16 10:02:05;;;;;;;14.00;4.50;;;;;;;41.86;27.00;101055.63;5034849;28;20106;-59
2021/06/16 10:04:41;;;;;;;6.28;4.30;;;;;;;42.20;26.70;101055.59;5034424;28;20045;-59
2021/06/16 10:07:18;;;;;;;71.45;64.07;;;;;;;42.67;26.21;101056.44;5052780;28;20033;-59
2021/06/16 10:10:08;;;;;;;1999.90;999.90;;;;;;;43.29;26.08;101041.66;5052444;28;20520;-59
2021/06/16 10:12:34;;;;;;;13.93;11.80;;;;;;;44.04;25.53;101046.16;5024914;28;20116;-60
2021/06/16 10:15:05;;;;;;;7.13;4.07;;;;;;;45.08;24.54;101055.06;5052485;28;20040;-60
2021/06/16 10:17:30;;;;;;;;;;;;;;;45.98;24.16;101049.75;5052591;28;20117;-60
2021/06/16 10:19:56;;;;;;;6.10;3.90;;;;;;;46.12;23.35;101041.66;5053722;28;19995;-59
2021/06/16 10:22:22;;;;;;;7.47;4.03;;;;;;;45.71;23.92;101044.91;5038667;28;20116;-59
2021/06/16 10:24:48;;;;;;;10.60;4.47;;;;;;;45.39;24.20;101045.94;5038562;28;20025;-59
2021/06/16 10:27:36;;;;;;;8.43;4.40;;;;;;;45.18;24.15;101051.72;5055287;28;20090;-59
2021/06/16 10:30:08;;;;;;;11.32;4.20;;;;;;;44.98;24.20;101047.06;5056484;28;20047;-59
2021/06/16 10:32:41;;;;;;;11.00;5.18;;;;;;;44.96;24.01;101050.22;5056538;28;20040;-59
2021/06/16 10:35:09;;;;;;;8.02;4.97;;;;;;;45.05;24.11;101042.44;5056497;28;20044;-60
2021/06/16 10:37:38;;;;;;;7.57;5.53;;;;;;;45.15;23.80;101052.44;5056008;28;20112;-60
2021/06/16 10:40:27;;;;;;;8.98;4.38;;;;;;;45.21;23.47;101051.00;5056331;28;20091;-59
2021/06/16 10:42:59;;;;;;;6.22;5.63;;;;;;;45.14;23.30;101045.97;5045598;28;20056;-59
2021/06/16 10:45:28;;;;;;;;;;;;;;;45.28;24.34;101041.97;5056333;28;20075;-59
2021/06/16 10:47:54;;;;;;;7.72;6.05;;;;;;;45.31;23.41;101047.75;5056025;28;20280;-59
2021/06/16 10:50:20;;;;;;;5.32;3.88;;;;;;;45.13;23.47;101035.81;5056084;28;20033;-60
2021/06/16 10:53:03;;;;;;;5.85;4.55;;;;;;;45.46;23.02;101041.31;5055846;28;20025;-59
2021/06/16 10:55:54;;;;;;;9.90;4.72;;;;;;;45.70;23.01;101046.09;5056393;28;20035;-59
2021/06/16 10:58:26;;;;;;;8.00;4.75;;;;;;;45.94;23.06;101033.81;5056397;28;20028;-60
2021/06/16 11:01:20;;;;;;;13.25;4.60;;;;;;;46.21;22.68;101022.44;5057402;28;20545;-59
2021/06/16 11:03:51;;;;;;;6.95;4.35;;;;;;;46.46;22.87;101033.66;5037079;28;20393;-59
2021/06/16 11:06:35;;;;;;;6.20;5.53;;;;;;;46.65;22.34;101025.22;5036934;28;20558;-59
2021/06/16 11:09:08;;;;;;;7.53;4.07;;;;;;;46.84;22.31;101028.16;5036993;28;20029;-59
2021/06/16 11:12:00;;;;;;;7.35;4.65;;;;;;;46.91;22.11;101028.31;5036564;28;20412;-59
2021/06/16 11:17:00;;;;;;;8.88;4.32;;;;;;;46.51;22.62;101022.88;5036805;28;20059;-60
2021/06/16 11:19:36;;;;;;;7.18;3.53;;;;;;;46.08;22.54;101018.06;5036878;28;20029;-60
2021/06/16 11:22:25;;;;;;;4.88;4.07;;;;;;;45.48;22.95;101009.81;5037216;28;20355;-60
2021/06/16 11:25:18;;;;;;;6.65;4.03;;;;;;;44.97;22.88;101015.09;5036700;28;20029;-60
2021/06/16 11:28:08;;;;;;;9.50;4.55;;;;;;;45.26;22.82;101018.81;5036029;28;20033;-59
2021/06/16 11:30:47;;;;;;;6.50;3.65;;;;;;;45.48;22.61;101012.66;5036406;28;20421;-59
2021/06/16 11:33:15;;;;;;;5.93;3.50;;;;;;;45.54;22.48;101005.50;5035996;28;20478;-60